Time;durP1;ratioP1;P1;durP2;ratioP2;P2;SDS_P1;SDS_P2;PMS_P1;PMS_P2;Temp;Humidity;BMP_temperature;BMP_pressure;BME280_temperature;BME280_humidity;BME280_pressure;Samples;Min_cycle;Max_cycle;Signal;HPM_P1;HPM_P2
2023/06/04 00:01:54;;;;;;;0.30;0.30;;;14.20;99.90;;;;;;5056752;28;20024;-75
2023/06/04 00:04:22;;;;;;;0.20;0.20;;;14.20;99.90;;;;;;5057268;28;20317;-76
2023/06/04 00:06:47;;;;;;;0.20;0.20;;;14.20;99.90;;;;;;5057063;28;20020;-77
2023/06/04 00:09:13;;;;;;;0.20;0.20;;;14.10;99.90;;;;;;5057102;28;20103;-76
2023/06/04 00:11:39;;;;;;;0.20;0.20;;;14.10;99.90;;;;;;5056991;28;20038;-76
2023/06/04 00:14:05;;;;;;;0.10;0.10;;;14.10;99.90;;;;;;5056893;28;20033;-76
2023/06/04 00:16:30;;;;;;;0.50;0.50;;;14.10;99.90;;;;;;5056631;28;20537;-77
2023/06/04 00:18:56;;;;;;;0.20;0.20;;;14.00;99.90;;;;;;5057303;28;20028;-79
2023/06/04 00:21:22;;;;;;;0.20;0.20;;;14.00;99.90;;;;;;5056751;28;20445;-79
2023/06/04 00:23:48;;;;;;;0.47;0.47;;;14.10;99.90;;;;;;5056624;28;20261;-76
2023/06/04 00:26:13;;;;;;;0.10;0.10;;;14.00;99.90;;;;;;5056815;28;20298;-76
2023/06/04 00:28:39;;;;;;;0.20;0.20;;;14.00;99.90;;;;;;5056910;28;20521;-76
2023/06/04 00:31:08;;;;;;;0.10;0.10;;;14.00;99.90;;;;;;5056897;28;20020;-78
2023/06/04 00:33:35;;;;;;;0.20;0.20;;;14.00;99.90;;;;;;5023346;28;20040;-77
2023/06/04 00:36:01;;;;;;;0.20;0.20;;;13.90;99.90;;;;;;5038756;28;20047;-77
2023/06/04 00:38:27;;;;;;;0.20;0.20;;;14.00;99.90;;;;;;5056475;28;20017;-77
2023/06/04 00:40:52;;;;;;;0.20;0.20;;;14.00;99.90;;;;;;5056568;28;20679;-81
2023/06/04 00:43:19;;;;;;;0.20;0.20;;;13.90;99.90;;;;;;5056474;28;20036;-77
2023/06/04 00:45:45;;;;;;;0.10;0.10;;;13.90;99.90;;;;;;5056462;28;20056;-78
2023/06/04 00:48:11;;;;;;;1.05;1.05;;;13.90;99.90;;;;;;5056754;28;20348;-78
2023/06/04 00:50:38;;;;;;;0.32;0.32;;;13.90;99.90;;;;;;5056474;28;20013;-77
2023/06/04 00:53:05;;;;;;;0.10;0.10;;;13.90;99.90;;;;;;5056652;28;20040;-78
2023/06/04 00:55:32;;;;;;;0.10;0.10;;;13.80;99.90;;;;;;5060241;28;20325;-78
2023/06/04 00:57:57;;;;;;;0.30;0.30;;;13.80;99.90;;;;;;5060191;28;20017;-78
2023/06/04 01:00:23;;;;;;;0.15;0.15;;;13.80;99.90;;;;;;5060541;28;20059;-76
2023/06/04 01:02:53;;;;;;;0.15;0.15;;;13.80;99.90;;;;;;5060228;28;20085;-75
2023/06/04 01:06:12;;;;;;;0.10;0.10;;;13.80;99.90;;;;;;5060383;28;20495;-76
2023/06/04 01:08:42;;;;;;;0.10;0.10;;;13.80;99.90;;;;;;4958617;28;20031;-75
2023/06/04 01:11:08;;;;;;;0.10;0.10;;;13.80;99.90;;;;;;4958754;28;20101;-75
2023/06/04 01:13:34;;;;;;;0.20;0.20;;;13.80;99.90;;;;;;4958647;28;20106;-75
2023/06/04 01:16:00;;;;;;;0.25;0.25;;;13.80;99.90;;;;;;4958304;28;20344;-75
2023/06/04 01:18:29;;;;;;;1.33;1.33;;;13.80;99.90;;;;;;4950788;28;20050;-75
2023/06/04 01:21:00;;;;;;;0.10;0.10;;;13.80;99.90;;;;;;4958589;28;20031;-76
2023/06/04 01:23:36;;;;;;;2.72;2.53;;;13.80;99.90;;;;;;4958423;28;20039;-76
2023/06/04 01:26:03;;;;;;;0.20;0.20;;;13.80;99.90;;;;;;4958107;28;20086;-77
2023/06/04 01:28:32;;;;;;;0.20;0.20;;;13.80;99.90;;;;;;4958271;28;20114;-76
2023/06/04 01:30:59;;;;;;;0.20;0.20;;;13.70;99.90;;;;;;4958367;28;20301;-75
2023/06/04 01:33:25;;;;;;;0.20;0.20;;;13.80;99.90;;;;;;4958316;28;20027;-77
2023/06/04 01:35:51;;;;;;;0.68;0.68;;;13.70;99.90;;;;;;4958103;28;20244;-77
2023/06/04 01:38:18;;;;;;;0.30;0.30;;;13.70;99.90;;;;;;4958218;28;20042;-76
2023/06/04 01:40:44;;;;;;;0.40;0.40;;;13.80;99.90;;;;;;4958401;28;20078;-76
2023/06/04 01:43:10;;;;;;;0.10;0.10;;;13.70;99.90;;;;;;4961859;28;20064;-76
2023/06/04 01:45:35;;;;;;;0.17;0.17;;;13.70;99.90;;;;;;5059172;28;20078;-76
2023/06/04 01:48:03;;;;;;;0.20;0.20;;;13.70;99.90;;;;;;5059876;28;20036;-76
2023/06/04 01:50:30;;;;;;;0.20;0.20;;;13.80;99.90;;;;;;5059492;28;20024;-76
2023/06/04 01:52:56;;;;;;;1.08;1.08;;;13.80;99.90;;;;;;5059547;28;20070;-76
2023/06/04 01:55:29;;;;;;;0.25;0.25;;;13.80;99.90;;;;;;5067051;28;20166;-76
2023/06/04 01:57:56;;;;;;;0.10;0.10;;;13.80;99.90;;;;;;5048115;28;20232;-76
2023/06/04 02:00:23;;;;;;;0.10;0.10;;;13.80;99.90;;;;;;5067198;28;20621;-76
2023/06/04 02:02:50;;;;;;;0.10;0.10;;;13.80;99.90;;;;;;5047280;28;20103;-75
2023/06/04 02:05:16;;;;;;;0.10;0.10;;;13.80;99.90;;;;;;5046840;28;20025;-76
2023/06/04 02:07:44;;;;;;;0.15;0.15;;;11.80;99.90;;;;;;5044167;28;20013;-76
2023/06/04 02:10:15;;;;;;;0.20;0.20;;;13.70;99.90;;;;;;5059259;28;20025;-77
2023/06/04 02:12:59;;;;;;;0.10;0.10;;;13.60;99.90;;;;;;5024774;28;20013;-79
2023/06/04 02:15:26;;;;;;;0.20;0.20;;;13.60;99.90;;;;;;5059038;28;20021;-77
2023/06/04 02:17:58;;;;;;;0.10;0.10;;;13.60;99.90;;;;;;5058659;28;20230;-79
2023/06/04 02:20:28;;;;;;;0.65;0.65;;;13.50;99.90;;;;;;5058801;28;20134;-78
2023/06/04 02:22:54;;;;;;;1.27;1.27;;;13.50;99.90;;;;;;5058966;28;20025;-77
2023/06/04 02:25:20;;;;;;;0.10;0.10;;;13.50;99.90;;;;;;5059086;28;20119;-79
2023/06/04 02:27:46;;;;;;;0.35;0.35;;;13.40;99.90;;;;;;5059001;28;20305;-77
2023/06/04 02:30:12;;;;;;;0.20;0.20;;;13.50;99.90;;;;;;5058984;28;20108;-77
2023/06/04 02:32:39;;;;;;;0.20;0.20;;;13.50;99.90;;;;;;5058733;28;20048;-78
2023/06/04 02:35:05;;;;;;;0.10;0.10;;;13.40;99.90;;;;;;5059311;28;20154;-77
2023/06/04 02:37:30;;;;;;;0.10;0.10;;;13.40;99.90;;;;;;5059041;28;20030;-78
2023/06/04 02:39:56;;;;;;;0.10;0.10;;;13.40;99.90;;;;;;5058678;28;20553;-78
2023/06/04 02:42:22;;;;;;;0.20;0.20;;;13.40;99.90;;;;;;5058678;28;20233;-78
2023/06/04 02:44:47;;;;;;;1.40;1.40;;;13.40;99.90;;;;;;5058198;28;20103;-77
2023/06/04 02:47:13;;;;;;;4.53;4.25;;;13.40;99.90;;;;;;5058183;28;20021;-78
2023/06/04 02:49:39;;;;;;;0.20;0.20;;;13.40;99.90;;;;;;5058490;28;20029;-78
2023/06/04 02:52:05;;;;;;;0.90;0.90;;;13.40;99.90;;;;;;5040314;28;20059;-78
2023/06/04 02:54:31;;;;;;;0.20;0.20;;;13.40;99.90;;;;;;5058157;28;20075;-82
2023/06/04 02:56:56;;;;;;;0.20;0.20;;;13.40;99.90;;;;;;5058540;28;20013;-78
2023/06/04 02:59:22;;;;;;;0.20;0.20;;;13.40;99.90;;;;;;5040262;28;20063;-81
2023/06/04 03:01:48;;;;;;;0.20;0.20;;;13.40;99.90;;;;;;5039599;28;20078;-77
2023/06/04 03:04:15;;;;;;;0.20;0.20;;;13.40;99.90;;;;;;5058009;28;20028;-78
2023/06/04 03:06:44;;;;;;;0.20;0.20;;;13.40;99.90;;;;;;5040204;28;20613;-80
2023/06/04 03:09:11;;;;;;;0.20;0.20;;;13.40;99.90;;;;;;5057708;28;20074;-78
2023/06/04 03:11:37;;;;;;;0.30;0.30;;;13.40;99.90;;;;;;5058012;28;20024;-77
2023/06/04 03:14:03;;;;;;;0.20;0.20;;;13.40;99.90;;;;;;5057943;28;20520;-78
2023/06/04 03:16:28;;;;;;;0.10;0.10;;;13.40;99.90;;;;;;5057029;28;20705;-81
2023/06/04 03:18:55;;;;;;;0.20;0.20;;;13.40;99.90;;;;;;5057753;28;20489;-79
2023/06/04 03:21:21;;;;;;;0.13;0.13;;;13.40;99.90;;;;;;5057661;28;20016;-78
2023/06/04 03:23:46;;;;;;;0.10;0.10;;;13.40;99.90;;;;;;5057544;28;20222;-77
2023/06/04 03:26:12;;;;;;;0.20;0.20;;;13.50;99.90;;;;;;5057627;28;20287;-77
2023/06/04 03:28:38;;;;;;;0.20;0.20;;;13.50;99.90;;;;;;5057646;28;20309;-78
2023/06/04 03:31:04;;;;;;;0.30;0.30;;;13.50;99.90;;;;;;5057333;28;20365;-78
2023/06/04 03:33:30;;;;;;;0.20;0.20;;;13.60;99.90;;;;;;5057703;28;20573;-78
2023/06/04 03:35:58;;;;;;;0.25;0.25;;;13.60;99.90;;;;;;5057639;28;20340;-79
2023/06/04 03:38:25;;;;;;;0.20;0.20;;;13.60;99.90;;;;;;5057191;28;20513;-78
2023/06/04 03:40:52;;;;;;;4.13;3.85;;;13.60;99.90;;;;;;5057523;28;20364;-78
2023/06/04 03:43:19;;;;;;;2.47;2.38;;;13.60;99.90;;;;;;5057060;28;20385;-81
2023/06/04 03:45:45;;;;;;;1.63;1.55;;;13.70;99.90;;;;;;5057004;28;20095;-78
2023/06/04 03:48:11;;;;;;;0.20;0.20;;;13.70;99.90;;;;;;5057128;28;20222;-78
2023/06/04 03:50:36;;;;;;;0.20;0.20;;;13.70;99.90;;;;;;5057416;28;20017;-78
2023/06/04 03:53:04;;;;;;;0.10;0.10;;;13.70;99.90;;;;;;5057096;28;20071;-78
2023/06/04 03:55:32;;;;;;;0.20;0.20;;;13.70;99.90;;;;;;5057412;28;20025;-78
2023/06/04 03:57:58;;;;;;;0.10;0.10;;;13.70;99.90;;;;;;5056990;28;20024;-77
2023/06/04 04:00:24;;;;;;;0.40;0.40;;;13.80;99.90;;;;;;5056989;28;20304;-77
2023/06/04 04:02:50;;;;;;;0.30;0.30;;;13.80;99.90;;;;;;5057012;28;20029;-77
2023/06/04 04:05:16;;;;;;;0.20;0.20;;;13.90;99.90;;;;;;5057330;28;20024;-79
2023/06/04 04:07:42;;;;;;;0.10;0.10;;;13.90;99.90;;;;;;5057465;28;20039;-77
2023/06/04 04:10:08;;;;;;;0.20;0.20;;;13.90;99.90;;;;;;5039122;28;20406;-76
2023/06/04 04:12:34;;;;;;;0.75;0.65;;;13.90;99.90;;;;;;5039113;28;20275;-78
2023/06/04 04:15:00;;;;;;;0.10;0.10;;;14.00;99.90;;;;;;5056968;28;20284;-77
2023/06/04 04:17:26;;;;;;;0.20;0.20;;;14.00;99.90;;;;;;5056760;28;20036;-77
2023/06/04 04:19:51;;;;;;;0.10;0.10;;;14.00;99.90;;;;;;5056970;28;20023;-77
2023/06/04 04:22:17;;;;;;;0.20;0.20;;;14.10;99.90;;;;;;5056958;28;20387;-78
2023/06/04 04:24:44;;;;;;;0.20;0.20;;;14.10;99.90;;;;;;5038341;28;20695;-77
2023/06/04 04:27:15;;;;;;;0.20;0.20;;;14.20;99.90;;;;;;5039149;28;20439;-77
2023/06/04 04:29:43;;;;;;;0.20;0.20;;;14.20;99.90;;;;;;5043607;28;20094;-76
2023/06/04 04:32:12;;;;;;;0.20;0.20;;;14.20;99.90;;;;;;5060541;28;20025;-77
2023/06/04 04:34:51;;;;;;;0.32;0.32;;;14.20;99.90;;;;;;5060671;28;20395;-77
2023/06/04 04:37:17;;;;;;;0.20;0.20;;;14.30;99.90;;;;;;5060789;28;20241;-77
2023/06/04 04:39:42;;;;;;;0.10;0.10;;;14.30;99.90;;;;;;5042857;28;20017;-77
2023/06/04 04:42:08;;;;;;;0.20;0.20;;;14.40;99.90;;;;;;5060767;28;20024;-79
2023/06/04 04:44:34;;;;;;;0.10;0.10;;;14.40;99.90;;;;;;5055982;28;20144;-79
2023/06/04 04:46:59;;;;;;;0.15;0.15;;;14.40;99.90;;;;;;5056694;28;20036;-77
2023/06/04 04:49:25;;;;;;;0.20;0.20;;;14.50;99.90;;;;;;5060311;28;20021;-78
2023/06/04 04:51:51;;;;;;;0.20;0.20;;;14.60;99.90;;;;;;5060379;28;20499;-78
2023/06/04 04:54:17;;;;;;;0.20;0.20;;;14.60;99.90;;;;;;5060213;28;20062;-77
2023/06/04 04:56:42;;;;;;;0.20;0.20;;;14.60;99.90;;;;;;5060423;28;20019;-77
2023/06/04 04:59:08;;;;;;;0.10;0.10;;;14.70;99.90;;;;;;5060561;28;20016;-77
2023/06/04 05:01:34;;;;;;;0.10;0.10;;;14.80;99.90;;;;;;5060361;28;20067;-76
2023/06/04 05:04:00;;;;;;;0.10;0.10;;;14.80;99.90;;;;;;5060325;28;20040;-77
2023/06/04 05:06:25;;;;;;;1.45;1.35;;;14.90;99.90;;;;;;5060708;28;20554;-77
2023/06/04 05:08:51;;;;;;;0.13;0.13;;;14.90;99.90;;;;;;5060358;28;20021;-77
2023/06/04 05:11:17;;;;;;;0.65;0.65;;;15.00;99.90;;;;;;5041814;28;20047;-78
2023/06/04 05:13:42;;;;;;;0.52;0.52;;;15.10;99.90;;;;;;5060218;28;20494;-77
2023/06/04 05:16:11;;;;;;;0.20;0.20;;;15.20;99.90;;;;;;5059690;28;20099;-77
2023/06/04 05:18:44;;;;;;;0.20;0.20;;;15.20;99.90;;;;;;5042294;28;20227;-77
2023/06/04 05:21:12;;;;;;;1.17;1.17;;;15.20;99.90;;;;;;5059835;28;20230;-77
2023/06/04 05:23:38;;;;;;;0.25;0.25;;;15.30;99.90;;;;;;5059670;28;20060;-77
2023/06/04 05:26:05;;;;;;;1.50;1.40;;;15.20;99.90;;;;;;5041934;28;20019;-78
2023/06/04 05:28:33;;;;;;;0.30;0.30;;;15.20;99.90;;;;;;5059883;28;20713;-78
2023/06/04 05:31:00;;;;;;;0.20;0.20;;;15.10;99.90;;;;;;5059778;28;20700;-78
2023/06/04 05:33:26;;;;;;;0.20;0.20;;;15.20;99.90;;;;;;5059569;28;20476;-78
2023/06/04 05:35:52;;;;;;;0.10;0.10;;;15.30;99.90;;;;;;5059735;28;20017;-77
2023/06/04 05:38:25;;;;;;;0.17;0.17;;;15.30;99.90;;;;;;5059789;28;20507;-77
2023/06/04 05:40:57;;;;;;;2.40;2.28;;;15.40;99.90;;;;;;5057675;28;20055;-78
2023/06/04 05:43:23;;;;;;;0.20;0.20;;;15.50;99.90;;;;;;5059660;28;20064;-79
2023/06/04 05:45:49;;;;;;;0.10;0.10;;;15.50;99.90;;;;;;5058012;28;20312;-78
2023/06/04 05:48:15;;;;;;;0.28;0.28;;;15.60;99.90;;;;;;5059611;28;20418;-78
2023/06/04 05:50:41;;;;;;;0.17;0.17;;;15.70;99.90;;;;;;5059570;28;20034;-78
2023/06/04 05:53:07;;;;;;;0.20;0.20;;;15.80;99.90;;;;;;5065129;28;20047;-77
2023/06/04 05:55:33;;;;;;;0.10;0.10;;;15.90;99.90;;;;;;5045491;28;20232;-85
2023/06/04 05:57:58;;;;;;;1.25;1.25;;;15.90;99.90;;;;;;5061493;28;20379;-77
2023/06/04 06:00:24;;;;;;;0.35;0.35;;;16.00;99.90;;;;;;5079541;28;20020;-80
2023/06/04 06:02:50;;;;;;;0.73;0.73;;;16.20;99.90;;;;;;5079307;28;20023;-77
2023/06/04 06:05:18;;;;;;;0.50;0.50;;;16.30;99.90;;;;;;5079488;28;20031;-77
2023/06/04 06:07:44;;;;;;;0.47;0.47;;;16.40;99.90;;;;;;5061255;28;20099;-78
2023/06/04 06:10:10;;;;;;;0.20;0.20;;;16.50;99.90;;;;;;5079340;28;20229;-77
2023/06/04 06:12:36;;;;;;;0.47;0.45;;;16.50;99.90;;;;;;5061468;28;20026;-83
2023/06/04 06:15:02;;;;;;;1.30;1.30;;;16.50;99.90;;;;;;5079029;28;20325;-76
2023/06/04 06:17:28;;;;;;;0.20;0.20;;;16.70;99.90;;;;;;5078886;28;20028;-76
2023/06/04 06:19:55;;;;;;;0.70;0.70;;;16.80;99.90;;;;;;5079151;28;20020;-75
2023/06/04 06:22:20;;;;;;;0.10;0.10;;;16.90;99.90;;;;;;5060936;28;20051;-76
2023/06/04 06:24:48;;;;;;;0.10;0.10;;;17.00;99.90;;;;;;5078817;28;20066;-75
2023/06/04 06:27:17;;;;;;;0.50;0.50;;;17.10;99.90;;;;;;5078787;28;20021;-75
2023/06/04 06:29:43;;;;;;;0.13;0.13;;;17.30;99.90;;;;;;5078652;28;20196;-76
2023/06/04 06:32:10;;;;;;;0.40;0.40;;;17.40;99.90;;;;;;5078754;28;20098;-76
2023/06/04 06:34:37;;;;;;;0.20;0.20;;;17.20;99.90;;;;;;5078802;28;20020;-76
2023/06/04 06:37:04;;;;;;;0.93;0.40;;;17.80;99.90;;;;;;5078813;28;20013;-75
2023/06/04 06:39:30;;;;;;;0.20;0.20;;;17.90;99.90;;;;;;5078792;28;20218;-76
2023/06/04 06:41:55;;;;;;;0.38;0.38;;;18.00;99.90;;;;;;5060761;28;20232;-78
2023/06/04 06:44:22;;;;;;;0.90;0.85;;;18.10;99.90;;;;;;5078611;28;20066;-76
2023/06/04 06:46:48;;;;;;;0.30;0.30;;;18.30;99.90;;;;;;5078523;28;20028;-76
2023/06/04 06:49:14;;;;;;;0.13;0.13;;;18.40;99.90;;;;;;5060534;28;20216;-77
2023/06/04 06:51:40;;;;;;;0.10;0.10;;;17.80;99.90;;;;;;5079254;28;20051;-77
2023/06/04 06:54:09;;;;;;;0.22;0.22;;;18.90;99.90;;;;;;5078906;28;20534;-78
2023/06/04 06:56:35;;;;;;;0.10;0.10;;;18.80;99.90;;;;;;5079047;28;20038;-78
2023/06/04 06:59:01;;;;;;;0.10;0.10;;;19.00;99.90;;;;;;5078342;28;20542;-77
2023/06/04 07:01:27;;;;;;;0.45;0.45;;;19.10;99.90;;;;;;5079150;28;20055;-79
2023/06/04 07:03:53;;;;;;;0.65;0.65;;;19.30;99.90;;;;;;5078859;28;20682;-78
2023/06/04 07:06:18;;;;;;;0.52;0.52;;;19.40;99.90;;;;;;5078351;28;20475;-76
2023/06/04 07:08:44;;;;;;;0.10;0.10;;;19.50;99.90;;;;;;5078991;28;20030;-84
2023/06/04 07:11:13;;;;;;;0.10;0.10;;;19.50;99.90;;;;;;5078948;28;20510;-80
2023/06/04 07:13:39;;;;;;;1.15;1.10;;;19.60;99.90;;;;;;5078695;28;20020;-82
2023/06/04 07:16:07;;;;;;;0.10;0.10;;;19.70;99.90;;;;;;5078974;28;20566;-81
2023/06/04 07:18:33;;;;;;;0.10;0.10;;;19.70;99.90;;;;;;5079177;28;20016;-80
2023/06/04 07:20:59;;;;;;;2.63;1.35;;;20.00;99.90;;;;;;5079441;28;20450;-80
2023/06/04 07:23:25;;;;;;;0.20;0.20;;;20.00;99.90;;;;;;5078053;28;20039;-83
2023/06/04 07:25:51;;;;;;;0.10;0.10;;;20.00;99.90;;;;;;5078381;28;20028;-80
2023/06/04 07:28:17;;;;;;;0.10;0.10;;;20.10;99.90;;;;;;5078616;28;20020;-76
2023/06/04 07:30:45;;;;;;;0.52;0.52;;;20.10;99.90;;;;;;5077849;28;20081;-76
2023/06/04 07:33:11;;;;;;;0.10;0.10;;;18.90;99.90;;;;;;5077719;28;20410;-77
2023/06/04 07:35:37;;;;;;;0.10;0.10;;;20.50;99.90;;;;;;5077827;28;20028;-78
2023/06/04 07:38:03;;;;;;;0.22;0.22;;;20.50;99.90;;;;;;5077846;28;20324;-79
2023/06/04 07:40:28;;;;;;;2.53;0.90;;;20.50;99.90;;;;;;5077617;28;20028;-77
2023/06/04 07:42:54;;;;;;;0.10;0.10;;;20.70;99.90;;;;;;5058593;28;20105;-76
2023/06/04 07:45:20;;;;;;;0.20;0.20;;;20.80;99.90;;;;;;5078338;28;20101;-76
2023/06/04 07:47:46;;;;;;;0.20;0.20;;;20.90;99.90;;;;;;5077805;28;20032;-77
2023/06/04 07:50:12;;;;;;;0.13;0.13;;;21.00;99.90;;;;;;5078030;28;20008;-76
2023/06/04 07:52:37;;;;;;;0.38;0.38;;;21.10;99.90;;;;;;5059548;28;20722;-76
2023/06/04 07:55:04;;;;;;;0.10;0.10;;;21.20;99.90;;;;;;5077970;28;20518;-76
2023/06/04 07:57:31;;;;;;;0.35;0.35;;;21.40;99.90;;;;;;5078100;28;20108;-76
2023/06/04 07:59:57;;;;;;;0.10;0.10;;;21.50;99.90;;;;;;5077887;28;20032;-76
2023/06/04 08:02:23;;;;;;;0.50;0.50;;;21.60;99.90;;;;;;5059166;28;20016;-77
2023/06/04 08:04:49;;;;;;;0.10;0.10;;;21.70;99.90;;;;;;5077635;28;20028;-76
2023/06/04 08:07:15;;;;;;;0.25;0.25;;;21.90;99.90;;;;;;5078104;28;20150;-76
2023/06/04 08:09:41;;;;;;;0.50;0.50;;;22.10;99.90;;;;;;5078126;28;20099;-76
2023/06/04 08:12:07;;;;;;;0.10;0.10;;;22.30;99.90;;;;;;5077961;28;20031;-76
2023/06/04 08:14:33;;;;;;;0.52;0.52;;;22.40;99.90;;;;;;5078516;28;20094;-78
2023/06/04 08:16:58;;;;;;;0.10;0.10;;;22.60;99.90;;;;;;5077590;28;20020;-76
2023/06/04 08:19:24;;;;;;;0.32;0.30;;;22.90;99.90;;;;;;5077732;28;20043;-76
2023/06/04 08:21:50;;;;;;;0.13;0.13;;;23.00;99.90;;;;;;5077850;28;20620;-75
2023/06/04 08:24:16;;;;;;;0.10;0.10;;;22.90;99.90;;;;;;5059167;28;20058;-77
2023/06/04 08:26:42;;;;;;;0.13;0.13;;;23.60;99.90;;;;;;5077385;28;20012;-75
2023/06/04 08:29:08;;;;;;;0.20;0.20;;;23.30;99.90;;;;;;5077277;28;20612;-76
2023/06/04 08:31:34;;;;;;;0.52;0.40;;;23.30;99.90;;;;;;5077522;28;20650;-76
2023/06/04 08:33:59;;;;;;;0.10;0.10;;;23.50;99.90;;;;;;5077999;28;20149;-75
2023/06/04 08:36:25;;;;;;;0.20;0.20;;;23.30;99.90;;;;;;5077751;28;20012;-76
2023/06/04 08:38:52;;;;;;;0.10;0.10;;;23.50;99.90;;;;;;5078143;28;20539;-74
2023/06/04 08:41:26;;;;;;;2.17;1.95;;;23.50;99.90;;;;;;5059585;28;20211;-76
2023/06/04 08:43:55;;;;;;;0.32;0.32;;;23.70;99.90;;;;;;5078276;28;20662;-76
2023/06/04 08:46:21;;;;;;;0.47;0.47;;;23.70;99.90;;;;;;5077090;28;20036;-76
2023/06/04 08:48:49;;;;;;;0.10;0.10;;;24.00;99.90;;;;;;5078127;28;20811;-74
2023/06/04 08:51:15;;;;;;;0.40;0.32;;;24.10;99.90;;;;;;5077823;28;20104;-77
2023/06/04 08:53:42;;;;;;;0.20;0.20;;;24.60;99.90;;;;;;5076964;28;20043;-75
2023/06/04 08:56:08;;;;;;;0.15;0.15;;;24.50;99.90;;;;;;5077738;28;20018;-75
2023/06/04 08:58:36;;;;;;;0.10;0.10;;;24.50;99.90;;;;;;5060476;28;20541;-75
2023/06/04 09:01:02;;;;;;;0.10;0.10;;;24.70;99.90;;;;;;5059004;28;20025;-78
2023/06/04 09:03:32;;;;;;;0.85;0.85;;;25.30;99.90;;;;;;5076982;28;20173;-75
2023/06/04 09:06:00;;;;;;;0.20;0.20;;;24.80;99.90;;;;;;5077205;28;20095;-76
2023/06/04 09:08:31;;;;;;;0.10;0.10;;;25.00;99.90;;;;;;5059800;28;20054;-75
2023/06/04 09:10:57;;;;;;;0.22;0.22;;;25.00;98.90;;;;;;5077153;28;20016;-75
2023/06/04 09:13:29;;;;;;;0.32;0.32;;;24.90;98.10;;;;;;5076887;28;20636;-78
2023/06/04 09:16:02;;;;;;;0.17;0.17;;;25.20;97.70;;;;;;5079853;28;20016;-76
2023/06/04 09:18:30;;;;;;;0.10;0.10;;;25.40;94.10;;;;;;5080264;28;20277;-76
2023/06/04 09:21:07;;;;;;;0.10;0.10;;;25.40;94.60;;;;;;5061940;28;20029;-76
2023/06/04 09:23:43;;;;;;;0.20;0.20;;;25.40;93.50;;;;;;5080700;28;20063;-79
2023/06/04 09:26:10;;;;;;;0.10;0.10;;;25.10;92.30;;;;;;5080986;28;20020;-76
2023/06/04 09:28:39;;;;;;;0.40;0.40;;;23.80;94.90;;;;;;5062720;28;20496;-77
2023/06/04 09:31:14;;;;;;;0.10;0.10;;;25.30;95.00;;;;;;5081591;28;20158;-76
2023/06/04 09:33:48;;;;;;;0.30;0.30;;;25.40;96.00;;;;;;5082035;28;20108;-76
2023/06/04 09:36:14;;;;;;;2.42;1.08;;;25.60;97.30;;;;;;5081287;28;20023;-76
2023/06/04 09:38:41;;;;;;;0.68;0.68;;;25.90;90.60;;;;;;5064032;28;20055;-78
2023/06/04 09:41:19;;;;;;;0.10;0.10;;;25.70;90.80;;;;;;5063683;28;20022;-77
2023/06/04 09:43:45;;;;;;;0.10;0.10;;;25.90;92.80;;;;;;5062506;28;20032;-79
2023/06/04 09:46:12;;;;;;;0.10;0.10;;;26.00;90.80;;;;;;5063045;28;20704;-77
2023/06/04 09:48:39;;;;;;;0.25;0.25;;;25.90;90.20;;;;;;5062487;28;20239;-77
2023/06/04 09:51:10;;;;;;;0.25;0.25;;;25.90;90.30;;;;;;5062805;28;20514;-75
2023/06/04 09:53:37;;;;;;;0.10;0.10;;;25.80;91.10;;;;;;5059310;28;20045;-78
2023/06/04 09:56:04;;;;;;;0.10;0.10;;;25.90;85.90;;;;;;5059946;28;20022;-77
2023/06/04 09:58:30;;;;;;;0.20;0.20;;;25.90;86.90;;;;;;5041980;28;20028;-83
2023/06/04 10:00:58;;;;;;;0.10;0.10;;;26.20;85.10;;;;;;5059879;28;20103;-77
2023/06/04 10:03:32;;;;;;;0.77;0.77;;;26.20;90.10;;;;;;5059225;28;20082;-78
2023/06/04 10:06:00;;;;;;;0.57;0.45;;;26.30;91.20;;;;;;5024652;28;20020;-78
2023/06/04 10:08:27;;;;;;;0.10;0.10;;;26.00;92.30;;;;;;5059073;28;20220;-76
2023/06/04 10:11:01;;;;;;;0.10;0.10;;;26.40;91.90;;;;;;5041714;28;20648;-79
2023/06/04 10:13:30;;;;;;;0.10;0.10;;;26.50;91.00;;;;;;5059572;28;20025;-78
2023/06/04 10:16:00;;;;;;;0.10;0.10;;;26.70;88.10;;;;;;5024816;28;20040;-77
2023/06/04 10:18:28;;;;;;;0.10;0.10;;;26.90;79.80;;;;;;5041288;28;20245;-76
2023/06/04 10:20:58;;;;;;;0.00;0.00;;;27.20;78.20;;;;;;5058987;28;20024;-75
2023/06/04 10:23:24;;;;;;;0.10;0.10;;;27.40;80.90;;;;;;5059443;28;20103;-76
2023/06/04 10:25:54;;;;;;;0.40;0.40;;;27.60;78.80;;;;;;5041165;28;20506;-78
2023/06/04 10:28:20;;;;;;;0.40;0.40;;;27.50;76.00;;;;;;5059602;28;20040;-77
2023/06/04 10:30:52;;;;;;;0.10;0.10;;;27.70;74.40;;;;;;5059085;28;20419;-76
2023/06/04 10:33:20;;;;;;;0.10;0.10;;;28.00;75.80;;;;;;5058904;28;20047;-77
2023/06/04 10:35:46;;;;;;;0.15;0.15;;;28.00;71.30;;;;;;5041090;28;20028;-79
2023/06/04 10:38:14;;;;;;;0.75;0.57;;;27.90;73.60;;;;;;5059235;28;20264;-76
2023/06/04 10:40:40;;;;;;;2.40;2.28;;;28.20;70.20;;;;;;5042185;28;20077;-75
2023/06/04 10:43:11;;;;;;;0.30;0.30;;;28.40;72.30;;;;;;5059267;28;20060;-79
2023/06/04 10:45:37;;;;;;;0.17;0.15;;;28.60;72.30;;;;;;5040906;28;20032;-77
2023/06/04 10:48:04;;;;;;;0.65;0.55;;;28.70;72.60;;;;;;5058500;28;20086;-77
2023/06/04 10:50:32;;;;;;;0.00;0.00;;;28.80;72.20;;;;;;5059157;28;20078;-82
2023/06/04 10:52:58;;;;;;;0.30;0.30;;;29.60;72.20;;;;;;5059095;28;20037;-77
2023/06/04 10:55:25;;;;;;;0.10;0.10;;;28.40;71.30;;;;;;5041086;28;20043;-82
2023/06/04 10:57:52;;;;;;;0.20;0.20;;;28.40;70.90;;;;;;5059447;28;20032;-80
2023/06/04 11:00:19;;;;;;;0.10;0.10;;;28.60;70.20;;;;;;5060027;28;20213;-77
2023/06/04 11:02:55;;;;;;;0.10;0.10;;;28.80;69.20;;;;;;5059686;28;20021;-77
2023/06/04 11:05:21;;;;;;;0.10;0.10;;;29.30;68.30;;;;;;5041741;28;20286;-77
2023/06/04 11:07:50;;;;;;;0.30;0.30;;;26.30;65.30;;;;;;5058603;28;20032;-78
2023/06/04 11:10:17;;;;;;;0.00;0.00;;;29.30;67.50;;;;;;5059014;28;20228;-80
2023/06/04 11:12:47;;;;;;;0.10;0.10;;;29.00;68.50;;;;;;5058229;28;20480;-78
2023/06/04 11:15:14;;;;;;;0.10;0.10;;;28.50;69.10;;;;;;5058347;28;20024;-76
2023/06/04 11:17:53;;;;;;;0.45;0.45;;;27.80;69.00;;;;;;5058399;28;20024;-76
2023/06/04 11:20:20;;;;;;;1.17;1.17;;;27.60;69.60;;;;;;5024492;28;20031;-77
2023/06/04 11:22:58;;;;;;;3.63;2.90;;;27.20;70.70;;;;;;5040305;28;20117;-77
2023/06/04 11:25:28;;;;;;;1.38;0.20;;;27.30;71.70;;;;;;5041001;28;20155;-76
2023/06/04 11:27:55;;;;;;;0.55;0.55;;;27.30;70.50;;;;;;5058252;28;20025;-76
2023/06/04 11:30:21;;;;;;;0.63;0.52;;;27.10;70.50;;;;;;5039867;28;20094;-80
2023/06/04 11:32:49;;;;;;;5.75;1.73;;;27.00;71.10;;;;;;5057964;28;20017;-77
2023/06/04 11:35:15;;;;;;;0.47;0.38;;;27.30;71.70;;;;;;5058439;28;20450;-78
2023/06/04 11:37:41;;;;;;;0.20;0.20;;;28.00;70.70;;;;;;5057853;28;20029;-77
2023/06/04 11:40:19;;;;;;;0.20;0.20;;;28.50;67.90;;;;;;5058559;28;20572;-80
2023/06/04 11:42:49;;;;;;;0.35;0.35;;;29.70;67.20;;;;;;5058866;28;20541;-80
2023/06/04 11:45:17;;;;;;;0.38;0.30;;;30.40;65.60;;;;;;5042003;28;20498;-76
2023/06/04 11:48:03;;;;;;;0.15;0.15;;;31.10;66.40;;;;;;5040987;28;20398;-76
2023/06/04 11:50:31;;;;;;;0.55;0.55;;;31.90;62.00;;;;;;5058951;28;20115;-77
2023/06/04 11:52:57;;;;;;;0.73;0.73;;;30.40;58.90;;;;;;5040286;28;20048;-76
2023/06/04 11:55:23;;;;;;;0.30;0.30;;;32.60;59.50;;;;;;5058388;28;20039;-76
2023/06/04 11:57:53;;;;;;;1.60;0.60;;;32.90;60.20;;;;;;5040298;28;20243;-77
2023/06/04 12:00:19;;;;;;;0.17;0.13;;;33.10;60.10;;;;;;5058401;28;20027;-75
2023/06/04 12:02:54;;;;;;;0.73;0.50;;;33.80;58.30;;;;;;5060012;28;20024;-76
2023/06/04 12:05:23;;;;;;;0.10;0.10;;;34.20;58.80;;;;;;5040074;28;20528;-75
2023/06/04 12:07:52;;;;;;;0.30;0.30;;;34.80;58.30;;;;;;5022841;28;20483;-76
2023/06/04 12:10:22;;;;;;;0.22;0.20;;;34.30;56.40;;;;;;5023115;28;20348;-76
2023/06/04 12:12:55;;;;;;;0.35;0.32;;;34.70;56.40;;;;;;5058263;28;20017;-80
2023/06/04 12:15:22;;;;;;;0.38;0.20;;;34.90;54.80;;;;;;5058173;28;20233;-76
2023/06/04 12:17:54;;;;;;;0.50;0.50;;;34.90;56.00;;;;;;5058084;28;20040;-82
2023/06/04 12:20:39;;;;;;;;;;;34.80;57.00;;;;;;5057704;28;20039;-75
2023/06/04 12:23:05;;;;;;;0.63;0.45;;;35.10;57.00;;;;;;5056888;28;19908;-75
2023/06/04 12:25:33;;;;;;;0.30;0.30;;;35.00;56.30;;;;;;5057253;28;20246;-75
2023/06/04 12:27:59;;;;;;;1.70;0.82;;;34.20;56.00;;;;;;5057441;28;20036;-76
2023/06/04 12:30:39;;;;;;;0.10;0.10;;;33.50;57.00;;;;;;5057673;28;20664;-76
2023/06/04 12:33:05;;;;;;;0.10;0.10;;;32.60;57.40;;;;;;5057031;28;20107;-75
2023/06/04 12:35:31;;;;;;;9.70;0.68;;;31.90;58.80;;;;;;5040006;28;20082;-82
2023/06/04 12:37:57;;;;;;;0.25;0.25;;;31.20;61.20;;;;;;5057664;28;20024;-75
2023/06/04 12:40:23;;;;;;;0.20;0.20;;;30.90;60.10;;;;;;5057737;28;20367;-74
2023/06/04 12:42:51;;;;;;;0.30;0.30;;;31.20;60.10;;;;;;5057954;28;20524;-78
2023/06/04 12:45:17;;;;;;;0.20;0.20;;;31.20;59.90;;;;;;5040391;28;20055;-77
2023/06/04 12:47:43;;;;;;;0.10;0.10;;;31.10;59.20;;;;;;5040459;28;20021;-76
2023/06/04 12:50:09;;;;;;;0.20;0.20;;;31.20;59.90;;;;;;5045251;28;20510;-82